sensor_id;sensor_type;location;lat;lon;timestamp;pressure;altitude;pressure_sealevel;temperature;humidity
5126;BME280;63008;53.112;8.896;2023-09-18T00:01:53;100861.44;;;18.16;100.00
5126;BME280;63008;53.112;8.896;2023-09-18T00:03:55;100846.75;;;18.15;100.00
5126;BME280;63008;53.112;8.896;2023-09-18T00:05:56;100847.91;;;18.11;100.00
5126;BME280;63008;53.112;8.896;2023-09-18T00:07:57;100853.06;;;18.12;100.00
5126;BME280;63008;53.112;8.896;2023-09-18T00:09:58;100845.13;;;18.11;100.00
5126;BME280;63008;53.112;8.896;2023-09-18T00:11:59;100835.19;;;18.13;100.00
5126;BME280;63008;53.112;8.896;2023-09-18T00:13:59;100834.78;;;18.08;100.00
5126;BME280;63008;53.112;8.896;2023-09-18T00:16:01;100849.41;;;18.05;100.00
5126;BME280;63008;53.112;8.896;2023-09-18T00:18:02;100841.88;;;18.05;100.00
5126;BME280;63008;53.112;8.896;2023-09-18T00:20:03;100846.19;;;18.03;100.00
5126;BME280;63008;53.112;8.896;2023-09-18T00:22:07;100841.47;;;18.03;100.00
5126;BME280;63008;53.112;8.896;2023-09-18T00:24:08;100841.47;;;18.03;100.00
5126;BME280;63008;53.112;8.896;2023-09-18T00:26:09;100832.34;;;18.06;100.00
5126;BME280;63008;53.112;8.896;2023-09-18T00:28:11;100837.56;;;18.08;100.00
5126;BME280;63008;53.112;8.896;2023-09-18T00:30:11;100839.09;;;18.05;100.00
5126;BME280;63008;53.112;8.896;2023-09-18T00:32:13;100824.38;;;18.01;100.00
5126;BME280;63008;53.112;8.896;2023-09-18T00:34:14;100818.81;;;18.01;100.00
5126;BME280;63008;53.112;8.896;2023-09-18T00:36:14;100817.25;;;18.04;100.00
5126;BME280;63008;53.112;8.896;2023-09-18T00:38:16;100812.91;;;18.06;100.00
5126;BME280;63008;53.112;8.896;2023-09-18T00:40:18;100803.41;;;18.07;100.00
5126;BME280;63008;53.112;8.896;2023-09-18T00:42:19;100797.06;;;18.10;100.00
5126;BME280;63008;53.112;8.896;2023-09-18T00:44:23;100793.97;;;18.19;100.00
5126;BME280;63008;53.112;8.896;2023-09-18T00:46:25;100791.59;;;18.21;100.00
5126;BME280;63008;53.112;8.896;2023-09-18T00:48:27;100790.75;;;18.13;100.00
5126;BME280;63008;53.112;8.896;2023-09-18T00:50:28;100777.25;;;18.12;100.00
5126;BME280;63008;53.112;8.896;2023-09-18T00:52:31;100778.41;;;18.07;100.00
5126;BME280;63008;53.112;8.896;2023-09-18T00:54:33;100768.09;;;18.11;100.00
5126;BME280;63008;53.112;8.896;2023-09-18T00:56:34;100764.91;;;18.09;100.00
5126;BME280;63008;53.112;8.896;2023-09-18T00:58:35;100750.22;;;18.05;100.00
5126;BME280;63008;53.112;8.896;2023-09-18T01:00:36;100737.06;;;17.99;100.00
5126;BME280;63008;53.112;8.896;2023-09-18T01:02:38;100737.00;;;17.95;100.00
5126;BME280;63008;53.112;8.896;2023-09-18T01:04:40;100729.50;;;17.96;100.00
5126;BME280;63008;53.112;8.896;2023-09-18T01:06:44;100736.19;;;17.91;100.00
5126;BME280;63008;53.112;8.896;2023-09-18T01:08:45;100729.44;;;17.92;100.00
5126;BME280;63008;53.112;8.896;2023-09-18T01:13:12;100717.16;;;17.90;100.00
5126;BME280;63008;53.112;8.896;2023-09-18T01:15:27;100720.66;;;17.87;100.00
5126;BME280;63008;53.112;8.896;2023-09-18T01:17:35;100717.53;;;17.88;100.00
5126;BME280;63008;53.112;8.896;2023-09-18T01:19:42;100706.38;;;17.85;100.00
5126;BME280;63008;53.112;8.896;2023-09-18T01:21:45;100704.00;;;17.87;100.00
5126;BME280;63008;53.112;8.896;2023-09-18T01:23:47;100702.44;;;17.89;100.00
5126;BME280;63008;53.112;8.896;2023-09-18T01:25:48;100696.50;;;17.87;100.00
5126;BME280;63008;53.112;8.896;2023-09-18T01:27:49;100693.31;;;17.85;100.00
5126;BME280;63008;53.112;8.896;2023-09-18T01:29:50;100677.41;;;17.82;100.00
5126;BME280;63008;53.112;8.896;2023-09-18T01:31:52;100673.44;;;17.83;100.00
5126;BME280;63008;53.112;8.896;2023-09-18T01:33:53;100676.59;;;17.82;100.00
5126;BME280;63008;53.112;8.896;2023-09-18T01:35:56;100675.81;;;17.81;100.00
5126;BME280;63008;53.112;8.896;2023-09-18T01:37:58;100666.25;;;17.79;100.00
5126;BME280;63008;53.112;8.896;2023-09-18T01:40:01;100669.91;;;17.86;100.00
5126;BME280;63008;53.112;8.896;2023-09-18T01:42:07;100667.91;;;17.87;100.00
5126;BME280;63008;53.112;8.896;2023-09-18T01:44:10;100669.88;;;17.83;100.00
5126;BME280;63008;53.112;8.896;2023-09-18T01:46:11;100667.06;;;17.79;100.00
5126;BME280;63008;53.112;8.896;2023-09-18T01:48:12;100664.72;;;17.85;100.00
5126;BME280;63008;53.112;8.896;2023-09-18T01:50:13;100662.72;;;17.82;100.00
5126;BME280;63008;53.112;8.896;2023-09-18T01:52:14;100671.88;;;17.86;100.00
5126;BME280;63008;53.112;8.896;2023-09-18T01:54:15;100670.69;;;17.83;100.00
5126;BME280;63008;53.112;8.896;2023-09-18T01:56:16;100661.91;;;17.78;100.00
5126;BME280;63008;53.112;8.896;2023-09-18T01:58:17;100659.94;;;17.82;100.00
5126;BME280;63008;53.112;8.896;2023-09-18T02:00:18;100660.38;;;17.87;100.00
5126;BME280;63008;53.112;8.896;2023-09-18T02:02:19;100664.38;;;17.93;100.00
5126;BME280;63008;53.112;8.896;2023-09-18T02:04:21;100661.19;;;17.88;100.00
5126;BME280;63008;53.112;8.896;2023-09-18T02:06:22;100645.28;;;17.81;100.00
5126;BME280;63008;53.112;8.896;2023-09-18T02:08:23;100648.06;;;17.85;100.00
5126;BME280;63008;53.112;8.896;2023-09-18T02:10:24;100653.19;;;17.83;100.00
5126;BME280;63008;53.112;8.896;2023-09-18T02:12:25;100646.47;;;17.80;100.00
5126;BME280;63008;53.112;8.896;2023-09-18T02:14:26;100646.47;;;17.80;100.00
5126;BME280;63008;53.112;8.896;2023-09-18T02:16:27;100641.69;;;17.81;100.00
5126;BME280;63008;53.112;8.896;2023-09-18T02:18:28;100651.25;;;17.87;100.00
5126;BME280;63008;53.112;8.896;2023-09-18T02:20:29;100647.72;;;17.90;100.00
5126;BME280;63008;53.112;8.896;2023-09-18T02:22:32;100651.31;;;17.94;100.00
5126;BME280;63008;53.112;8.896;2023-09-18T02:24:33;100654.13;;;17.97;100.00
5126;BME280;63008;53.112;8.896;2023-09-18T02:26:34;100646.59;;;17.98;100.00
5126;BME280;63008;53.112;8.896;2023-09-18T02:28:35;100651.25;;;17.87;100.00
5126;BME280;63008;53.112;8.896;2023-09-18T02:30:36;100646.50;;;17.87;100.00
5126;BME280;63008;53.112;8.896;2023-09-18T02:32:37;100648.88;;;17.85;100.00
5126;BME280;63008;53.112;8.896;2023-09-18T02:34:38;100647.69;;;17.86;100.00
5126;BME280;63008;53.112;8.896;2023-09-18T02:36:39;100649.69;;;17.89;100.00
5126;BME280;63008;53.112;8.896;2023-09-18T02:38:40;100643.59;;;17.73;100.00
5126;BME280;63008;53.112;8.896;2023-09-18T02:40:41;100641.56;;;17.67;100.00
5126;BME280;63008;53.112;8.896;2023-09-18T02:42:42;100639.50;;;17.57;100.00
5126;BME280;63008;53.112;8.896;2023-09-18T02:44:43;100637.91;;;17.56;100.00
5126;BME280;63008;53.112;8.896;2023-09-18T02:46:44;100631.59;;;17.59;100.00
5126;BME280;63008;53.112;8.896;2023-09-18T02:48:45;100622.47;;;17.58;100.00
5126;BME280;63008;53.112;8.896;2023-09-18T02:50:46;100615.69;;;17.52;100.00
5126;BME280;63008;53.112;8.896;2023-09-18T02:52:47;100619.25;;;17.53;100.00
5126;BME280;63008;53.112;8.896;2023-09-18T02:54:47;100610.13;;;17.52;100.00
5126;BME280;63008;53.112;8.896;2023-09-18T02:56:48;100604.56;;;17.52;100.00
5126;BME280;63008;53.112;8.896;2023-09-18T02:58:50;100606.56;;;17.55;100.00
5126;BME280;63008;53.112;8.896;2023-09-18T03:00:51;100612.94;;;17.59;100.00
5126;BME280;63008;53.112;8.896;2023-09-18T03:02:52;100610.94;;;17.56;100.00
5126;BME280;63008;53.112;8.896;2023-09-18T03:04:53;100610.22;;;17.63;100.00
5126;BME280;63008;53.112;8.896;2023-09-18T03:06:54;100610.16;;;17.56;100.00
5126;BME280;63008;53.112;8.896;2023-09-18T03:08:55;100593.88;;;17.54;100.00
5126;BME280;63008;53.112;8.896;2023-09-18T03:10:56;100601.84;;;17.59;100.00
5126;BME280;63008;53.112;8.896;2023-09-18T03:12:57;100598.66;;;17.57;100.00
5126;BME280;63008;53.112;8.896;2023-09-18T03:14:58;100591.09;;;17.54;100.00
5126;BME280;63008;53.112;8.896;2023-09-18T03:16:59;100587.56;;;17.54;100.00
5126;BME280;63008;53.112;8.896;2023-09-18T03:19:00;100591.09;;;17.54;100.00
5126;BME280;63008;53.112;8.896;2023-09-18T03:21:01;100585.19;;;17.56;100.00
5126;BME280;63008;53.112;8.896;2023-09-18T03:23:02;100579.59;;;17.52;100.00
5126;BME280;63008;53.112;8.896;2023-09-18T03:25:03;100581.19;;;17.53;100.00
5126;BME280;63008;53.112;8.896;2023-09-18T03:27:05;100570.47;;;17.52;100.00
5126;BME280;63008;53.112;8.896;2023-09-18T03:29:06;100574.53;;;17.61;100.00
5126;BME280;63008;53.112;8.896;2023-09-18T03:31:07;100564.16;;;17.55;100.00
5126;BME280;63008;53.112;8.896;2023-09-18T03:33:08;100565.38;;;17.61;100.00
5126;BME280;63008;53.112;8.896;2023-09-18T03:35:11;100561.84;;;17.64;100.00
5126;BME280;63008;53.112;8.896;2023-09-18T03:37:18;100560.25;;;17.63;100.00
5126;BME280;63008;53.112;8.896;2023-09-18T03:39:19;100548.78;;;17.68;100.00
5126;BME280;63008;53.112;8.896;2023-09-18T03:41:20;100545.25;;;17.74;100.00
5126;BME280;63008;53.112;8.896;2023-09-18T03:43:22;100540.50;;;17.78;100.00
5126;BME280;63008;53.112;8.896;2023-09-18T03:45:23;100534.16;;;17.71;100.00
5126;BME280;63008;53.112;8.896;2023-09-18T03:47:24;100524.16;;;17.63;100.00
5126;BME280;63008;53.112;8.896;2023-09-18T03:49:24;100519.75;;;17.58;100.00
5126;BME280;63008;53.112;8.896;2023-09-18T03:51:25;100520.94;;;17.57;100.00
5126;BME280;63008;53.112;8.896;2023-09-18T03:53:26;100518.16;;;17.57;100.00
5126;BME280;63008;53.112;8.896;2023-09-18T03:55:27;100500.75;;;17.57;100.00
5126;BME280;63008;53.112;8.896;2023-09-18T03:57:28;100502.28;;;17.54;100.00
5126;BME280;63008;53.112;8.896;2023-09-18T03:59:29;100497.53;;;17.51;100.00
5126;BME280;63008;53.112;8.896;2023-09-18T04:01:30;100491.97;;;17.51;100.00
5126;BME280;63008;53.112;8.896;2023-09-18T04:03:31;100478.06;;;17.48;100.00
5126;BME280;63008;53.112;8.896;2023-09-18T04:05:32;100474.50;;;17.47;100.00
5126;BME280;63008;53.112;8.896;2023-09-18T04:07:33;100461.81;;;17.46;100.00
5126;BME280;63008;53.112;8.896;2023-09-18T04:09:34;100450.31;;;17.44;100.00
5126;BME280;63008;53.112;8.896;2023-09-18T04:11:35;100445.50;;;17.38;100.00
5126;BME280;63008;53.112;8.896;2023-09-18T04:13:36;100441.97;;;17.41;100.00
5126;BME280;63008;53.112;8.896;2023-09-18T04:15:38;100426.50;;;17.40;100.00
5126;BME280;63008;53.112;8.896;2023-09-18T04:17:39;100424.91;;;17.39;100.00
5126;BME280;63008;53.112;8.896;2023-09-18T04:19:40;100431.59;;;17.34;100.00
5126;BME280;63008;53.112;8.896;2023-09-18T04:21:41;100431.94;;;17.33;100.00
5126;BME280;63008;53.112;8.896;2023-09-18T04:23:42;100420.50;;;17.34;100.00
5126;BME280;63008;53.112;8.896;2023-09-18T04:25:43;100425.69;;;17.36;100.00
5126;BME280;63008;53.112;8.896;2023-09-18T04:27:44;100420.84;;;17.33;100.00
5126;BME280;63008;53.112;8.896;2023-09-18T04:29:45;100409.34;;;17.31;100.00
5126;BME280;63008;53.112;8.896;2023-09-18T04:31:46;100403.88;;;17.34;100.00
5126;BME280;63008;53.112;8.896;2023-09-18T04:33:47;100397.06;;;17.32;100.00
5126;BME280;63008;53.112;8.896;2023-09-18T04:35:49;100389.94;;;17.27;100.00
5126;BME280;63008;53.112;8.896;2023-09-18T04:37:50;100383.16;;;17.25;100.00
5126;BME280;63008;53.112;8.896;2023-09-18T04:39:51;100382.75;;;17.23;100.00
5126;BME280;63008;53.112;8.896;2023-09-18T04:41:52;100391.53;;;17.32;100.00
5126;BME280;63008;53.112;8.896;2023-09-18T04:43:52;100391.63;;;17.39;100.00
5126;BME280;63008;53.112;8.896;2023-09-18T04:45:53;100392.41;;;17.43;100.00
5126;BME280;63008;53.112;8.896;2023-09-18T04:47:54;100382.53;;;17.45;100.00
5126;BME280;63008;53.112;8.896;2023-09-18T04:49:55;100386.09;;;17.46;100.00
5126;BME280;63008;53.112;8.896;2023-09-18T04:51:56;100366.28;;;17.47;100.00
5126;BME280;63008;53.112;8.896;2023-09-18T04:53:57;100359.53;;;17.52;100.00
5126;BME280;63008;53.112;8.896;2023-09-18T04:55:59;100357.19;;;17.54;100.00
5126;BME280;63008;53.112;8.896;2023-09-18T04:58:00;100344.09;;;17.54;100.00
5126;BME280;63008;53.112;8.896;2023-09-18T05:00:02;100339.78;;;17.57;100.00
5126;BME280;63008;53.112;8.896;2023-09-18T05:02:03;100325.88;;;17.60;100.00
5126;BME280;63008;53.112;8.896;2023-09-18T05:04:05;100316.78;;;17.60;100.00
5126;BME280;63008;53.112;8.896;2023-09-18T05:06:06;100335.03;;;17.64;100.00
5126;BME280;63008;53.112;8.896;2023-09-18T05:08:07;100322.34;;;17.63;100.00
5126;BME280;63008;53.112;8.896;2023-09-18T05:10:08;100311.63;;;17.69;100.00
5126;BME280;63008;53.112;8.896;2023-09-18T05:12:10;100308.09;;;17.68;100.00
5126;BME280;63008;53.112;8.896;2023-09-18T05:14:14;100308.47;;;17.70;100.00
5126;BME280;63008;53.112;8.896;2023-09-18T05:16:16;100308.50;;;17.74;100.00
5126;BME280;63008;53.112;8.896;2023-09-18T05:18:18;100302.94;;;17.74;100.00
5126;BME280;63008;53.112;8.896;2023-09-18T05:20:19;100302.53;;;17.75;100.00
5126;BME280;63008;53.112;8.896;2023-09-18T05:22:20;100301.34;;;17.76;100.00
5126;BME280;63008;53.112;8.896;2023-09-18T05:24:20;100297.41;;;17.81;100.00
5126;BME280;63008;53.112;8.896;2023-09-18T05:26:27;100298.59;;;17.87;100.00
5126;BME280;63008;53.112;8.896;2023-09-18T05:28:30;100298.63;;;17.90;100.00
5126;BME280;63008;53.112;8.896;2023-09-18T05:30:35;100307.34;;;17.96;100.00
5126;BME280;63008;53.112;8.896;2023-09-18T05:32:39;100303.00;;;17.95;100.00
5126;BME280;63008;53.112;8.896;2023-09-18T05:34:40;100296.25;;;17.96;100.00
5126;BME280;63008;53.112;8.896;2023-09-18T05:36:41;100289.91;;;18.02;100.00
5126;BME280;63008;53.112;8.896;2023-09-18T05:38:42;100285.16;;;18.06;100.00
5126;BME280;63008;53.112;8.896;2023-09-18T05:40:44;100274.03;;;18.06;100.00
5126;BME280;63008;53.112;8.896;2023-09-18T05:42:45;100278.03;;;18.09;100.00
5126;BME280;63008;53.112;8.896;2023-09-18T05:44:46;100275.66;;;18.14;100.00
5126;BME280;63008;53.112;8.896;2023-09-18T05:46:47;100278.03;;;18.19;100.00
5126;BME280;63008;53.112;8.896;2023-09-18T05:48:48;100272.88;;;18.25;100.00
5126;BME280;63008;53.112;8.896;2023-09-18T05:50:49;100276.44;;;18.25;100.00
5126;BME280;63008;53.112;8.896;2023-09-18T05:52:50;100295.50;;;18.30;100.00
5126;BME280;63008;53.112;8.896;2023-09-18T05:54:52;100299.09;;;18.38;100.00
5126;BME280;63008;53.112;8.896;2023-09-18T05:56:53;100297.91;;;18.49;100.00
5126;BME280;63008;53.112;8.896;2023-09-18T05:58:54;100294.72;;;18.50;100.00
5126;BME280;63008;53.112;8.896;2023-09-18T06:00:56;100289.16;;;18.54;100.00
5126;BME280;63008;53.112;8.896;2023-09-18T06:02:57;100286.00;;;18.62;100.00
5126;BME280;63008;53.112;8.896;2023-09-18T06:04:59;100293.13;;;18.70;100.00
5126;BME280;63008;53.112;8.896;2023-09-18T06:07:03;100276.41;;;18.88;100.00
5126;BME280;63008;53.112;8.896;2023-09-18T06:09:05;100265.25;;;18.95;100.00
5126;BME280;63008;53.112;8.896;2023-09-18T06:11:06;100259.69;;;18.95;100.00
5126;BME280;63008;53.112;8.896;2023-09-18T06:13:07;100249.72;;;19.01;100.00
5126;BME280;63008;53.112;8.896;2023-09-18T06:15:08;100253.28;;;19.08;100.00
5126;BME280;63008;53.112;8.896;2023-09-18T06:17:10;100251.31;;;19.12;100.00
5126;BME280;63008;53.112;8.896;2023-09-18T06:19:11;100240.16;;;19.16;100.00
5126;BME280;63008;53.112;8.896;2023-09-18T06:21:12;100235.00;;;19.14;100.00
5126;BME280;63008;53.112;8.896;2023-09-18T06:23:13;100245.34;;;19.21;100.00
5126;BME280;63008;53.112;8.896;2023-09-18T06:25:14;100256.81;;;19.26;100.00
5126;BME280;63008;53.112;8.896;2023-09-18T06:27:15;100250.88;;;19.28;100.00
5126;BME280;63008;53.112;8.896;2023-09-18T06:29:16;100245.63;;;19.37;100.00
5126;BME280;63008;53.112;8.896;2023-09-18T06:31:17;100233.72;;;19.40;100.00
5126;BME280;63008;53.112;8.896;2023-09-18T06:33:19;100240.44;;;19.42;100.00
5126;BME280;63008;53.112;8.896;2023-09-18T06:35:20;100240.44;;;19.46;100.00
5126;BME280;63008;53.112;8.896;2023-09-18T06:37:21;100227.28;;;19.50;100.00
5126;BME280;63008;53.112;8.896;2023-09-18T06:39:22;100234.41;;;19.58;100.00
5126;BME280;63008;53.112;8.896;2023-09-18T06:41:24;100234.75;;;19.67;100.00
5126;BME280;63008;53.112;8.896;2023-09-18T06:43:25;100228.34;;;19.73;100.00
5126;BME280;63008;53.112;8.896;2023-09-18T06:45:26;100230.28;;;19.80;100.00
5126;BME280;63008;53.112;8.896;2023-09-18T06:47:28;100234.22;;;19.89;100.00
5126;BME280;63008;53.112;8.896;2023-09-18T06:49:29;100228.63;;;19.93;100.00
5126;BME280;63008;53.112;8.896;2023-09-18T06:51:31;100229.41;;;19.93;100.00
5126;BME280;63008;53.112;8.896;2023-09-18T06:53:32;100233.38;;;19.92;100.00
5126;BME280;63008;53.112;8.896;2023-09-18T06:55:33;100232.94;;;19.97;100.00
5126;BME280;63008;53.112;8.896;2023-09-18T06:57:34;100232.59;;;19.92;100.00
5126;BME280;63008;53.112;8.896;2023-09-18T06:59:35;100232.16;;;19.97;100.00
5126;BME280;63008;53.112;8.896;2023-09-18T07:01:36;100235.34;;;19.95;100.00
5126;BME280;63008;53.112;8.896;2023-09-18T07:03:37;100232.59;;;19.92;100.00
5126;BME280;63008;53.112;8.896;2023-09-18T07:05:40;100236.19;;;19.89;100.00
5126;BME280;63008;53.112;8.896;2023-09-18T07:07:42;100235.44;;;19.85;100.00
5126;BME280;63008;53.112;8.896;2023-09-18T07:09:43;100232.25;;;19.86;100.00
5126;BME280;63008;53.112;8.896;2023-09-18T07:11:44;100231.47;;;19.82;100.00
5126;BME280;63008;53.112;8.896;2023-09-18T07:13:45;100222.75;;;19.77;100.00
5126;BME280;63008;53.112;8.896;2023-09-18T07:15:46;100223.97;;;19.76;100.00
5126;BME280;63008;53.112;8.896;2023-09-18T07:17:48;100218.78;;;19.78;100.00
5126;BME280;63008;53.112;8.896;2023-09-18T07:19:49;100213.22;;;19.74;100.00
5126;BME280;63008;53.112;8.896;2023-09-18T07:21:50;100207.28;;;19.72;100.00
5126;BME280;63008;53.112;8.896;2023-09-18T07:23:51;100221.56;;;19.74;100.00
5126;BME280;63008;53.112;8.896;2023-09-18T07:25:52;100208.84;;;19.77;100.00
5126;BME280;63008;53.112;8.896;2023-09-18T07:27:53;100214.38;;;19.80;100.00
5126;BME280;63008;53.112;8.896;2023-09-18T07:29:55;100219.13;;;19.83;100.00
5126;BME280;63008;53.112;8.896;2023-09-18T07:31:57;100206.81;;;19.81;100.00
5126;BME280;63008;53.112;8.896;2023-09-18T07:33:58;100223.13;;;19.79;100.00
5126;BME280;63008;53.112;8.896;2023-09-18T07:35:59;100221.19;;;19.76;100.00
5126;BME280;63008;53.112;8.896;2023-09-18T07:37:59;100222.72;;;19.80;100.00
5126;BME280;63008;53.112;8.896;2023-09-18T07:40:01;100223.13;;;19.79;100.00
5126;BME280;63008;53.112;8.896;2023-09-18T07:42:03;100245.78;;;19.84;100.00
5126;BME280;63008;53.112;8.896;2023-09-18T07:44:04;100243.03;;;19.81;100.00
5126;BME280;63008;53.112;8.896;2023-09-18T07:46:05;100232.69;;;19.81;100.00
5126;BME280;63008;53.112;8.896;2023-09-18T07:48:07;100228.69;;;19.82;100.00
5126;BME280;63008;53.112;8.896;2023-09-18T07:50:08;100235.06;;;19.79;100.00
5126;BME280;63008;53.112;8.896;2023-09-18T07:52:09;100234.75;;;19.70;100.00
5126;BME280;63008;53.112;8.896;2023-09-18T07:54:14;100234.75;;;19.63;100.00
5126;BME280;63008;53.112;8.896;2023-09-18T07:56:15;100250.69;;;19.63;100.00
5126;BME280;63008;53.112;8.896;2023-09-18T07:58:16;100250.75;;;19.56;100.00
5126;BME280;63008;53.112;8.896;2023-09-18T08:00:17;100248.38;;;19.51;100.00
5126;BME280;63008;53.112;8.896;2023-09-18T08:02:18;100247.59;;;19.47;100.00
5126;BME280;63008;53.112;8.896;2023-09-18T08:04:20;100240.06;;;19.47;100.00
5126;BME280;63008;53.112;8.896;2023-09-18T08:06:21;100245.56;;;19.51;100.00
5126;BME280;63008;53.112;8.896;2023-09-18T08:08:24;100248.75;;;19.53;100.00
5126;BME280;63008;53.112;8.896;2023-09-18T08:10:25;100242.38;;;19.56;100.00
5126;BME280;63008;53.112;8.896;2023-09-18T08:12:26;100246.38;;;19.55;100.00
5126;BME280;63008;53.112;8.896;2023-09-18T08:14:27;100236.38;;;19.64;100.00
5126;BME280;63008;53.112;8.896;2023-09-18T08:16:28;100241.50;;;19.73;100.00
5126;BME280;63008;53.112;8.896;2023-09-18T08:18:30;100239.03;;;19.82;100.00
5126;BME280;63008;53.112;8.896;2023-09-18T08:20:31;100245.34;;;19.89;100.00
5126;BME280;63008;53.112;8.896;2023-09-18T08:22:33;100254.91;;;19.92;100.00
5126;BME280;63008;53.112;8.896;2023-09-18T08:24:34;100264.41;;;19.94;100.00
5126;BME280;63008;53.112;8.896;2023-09-18T08:26:35;100249.66;;;19.97;100.00
5126;BME280;63008;53.112;8.896;2023-09-18T08:28:37;100256.44;;;20.03;100.00
5126;BME280;63008;53.112;8.896;2023-09-18T08:30:44;100255.97;;;20.12;100.00
5126;BME280;63008;53.112;8.896;2023-09-18T08:32:47;100261.91;;;20.17;100.00
5126;BME280;63008;53.112;8.896;2023-09-18T08:34:48;100261.00;;;20.31;100.00
5126;BME280;63008;53.112;8.896;2023-09-18T08:36:49;100260.44;;;20.46;100.00
5126;BME280;63008;53.112;8.896;2023-09-18T08:38:50;100269.44;;;20.64;100.00
5126;BME280;63008;53.112;8.896;2023-09-18T08:40:53;100271.34;;;20.74;100.00
5126;BME280;63008;53.112;8.896;2023-09-18T08:42:55;100276.38;;;20.89;100.00
5126;BME280;63008;53.112;8.896;2023-09-18T08:44:58;100265.34;;;21.12;100.00
5126;BME280;63008;53.112;8.896;2023-09-18T08:47:00;100269.13;;;21.32;100.00
5126;BME280;63008;53.112;8.896;2023-09-18T08:49:04;100260.84;;;21.55;100.00
5126;BME280;63008;53.112;8.896;2023-09-18T08:51:06;100254.28;;;21.69;100.00
5126;BME280;63008;53.112;8.896;2023-09-18T08:53:07;100256.56;;;21.77;100.00
5126;BME280;63008;53.112;8.896;2023-09-18T08:55:08;100242.88;;;21.86;100.00
5126;BME280;63008;53.112;8.896;2023-09-18T08:57:10;100246.28;;;21.97;100.00
5126;BME280;63008;53.112;8.896;2023-09-18T08:59:13;100249.72;;;22.08;100.00
5126;BME280;63008;53.112;8.896;2023-09-18T09:01:14;100247.25;;;22.14;100.00
5126;BME280;63008;53.112;8.896;2023-09-18T09:03:15;100246.34;;;22.20;100.00
5126;BME280;63008;53.112;8.896;2023-09-18T09:05:16;100236.28;;;22.23;100.00
5126;BME280;63008;53.112;8.896;2023-09-18T09:07:17;100227.44;;;22.28;100.00
5126;BME280;63008;53.112;8.896;2023-09-18T09:09:19;100232.19;;;22.53;100.00
5126;BME280;63008;53.112;8.896;2023-09-18T09:11:20;100221.25;;;22.39;98.94
5126;BME280;63008;53.112;8.896;2023-09-18T09:13:21;100226.84;;;22.39;99.78
5126;BME280;63008;53.112;8.896;2023-09-18T09:15:28;100247.22;;;22.40;100.00
5126;BME280;63008;53.112;8.896;2023-09-18T09:17:30;100257.06;;;22.48;99.70
5126;BME280;63008;53.112;8.896;2023-09-18T09:19:33;100259.63;;;22.39;98.19
5126;BME280;63008;53.112;8.896;2023-09-18T09:21:38;100249.22;;;22.39;99.84
5126;BME280;63008;53.112;8.896;2023-09-18T09:23:48;100237.25;;;22.39;100.00
5126;BME280;63008;53.112;8.896;2023-09-18T09:25:49;100232.38;;;22.43;99.52
5126;BME280;63008;53.112;8.896;2023-09-18T09:27:50;100239.66;;;22.37;100.00
5126;BME280;63008;53.112;8.896;2023-09-18T09:30:01;100242.84;;;22.39;99.84
5126;BME280;63008;53.112;8.896;2023-09-18T09:32:17;100248.72;;;22.44;97.35
5126;BME280;63008;53.112;8.896;2023-09-18T09:34:25;100248.97;;;22.53;96.41
5126;BME280;63008;53.112;8.896;2023-09-18T09:36:27;100254.38;;;22.64;95.58
5126;BME280;63008;53.112;8.896;2023-09-18T09:38:32;100257.03;;;22.71;93.91
5126;BME280;63008;53.112;8.896;2023-09-18T09:40:34;100261.59;;;22.84;93.26
5126;BME280;63008;53.112;8.896;2023-09-18T09:42:40;100252.56;;;22.96;92.03
5126;BME280;63008;53.112;8.896;2023-09-18T09:44:41;100259.16;;;23.06;90.36
5126;BME280;63008;53.112;8.896;2023-09-18T09:46:50;100251.56;;;23.06;89.56
5126;BME280;63008;53.112;8.896;2023-09-18T09:51:02;100243.97;;;23.07;88.28
5126;BME280;63008;53.112;8.896;2023-09-18T09:53:03;100254.72;;;23.08;87.82
5126;BME280;63008;53.112;8.896;2023-09-18T09:55:18;100257.19;;;23.06;87.55
5126;BME280;63008;53.112;8.896;2023-09-18T09:57:19;100240.03;;;23.04;88.50
5126;BME280;63008;53.112;8.896;2023-09-18T09:59:20;100244.91;;;23.00;87.75
5126;BME280;63008;53.112;8.896;2023-09-18T10:01:21;100260.31;;;23.12;87.23
5126;BME280;63008;53.112;8.896;2023-09-18T10:03:24;100263.09;;;23.12;85.38
5126;BME280;63008;53.112;8.896;2023-09-18T10:05:31;100269.84;;;23.14;86.38
5126;BME280;63008;53.112;8.896;2023-09-18T10:07:33;100277.94;;;23.09;86.61
5126;BME280;63008;53.112;8.896;2023-09-18T10:09:36;100265.47;;;23.13;86.18
5126;BME280;63008;53.112;8.896;2023-09-18T10:11:42;100257.69;;;23.21;86.32
5126;BME280;63008;53.112;8.896;2023-09-18T10:13:55;100263.31;;;23.21;86.71
5126;BME280;63008;53.112;8.896;2023-09-18T10:15:59;100258.56;;;23.18;85.50
5126;BME280;63008;53.112;8.896;2023-09-18T10:18:07;100260.69;;;23.10;85.80
5126;BME280;63008;53.112;8.896;2023-09-18T10:20:12;100274.31;;;23.12;86.33
5126;BME280;63008;53.112;8.896;2023-09-18T10:22:37;100274.31;;;23.12;86.03
5126;BME280;63008;53.112;8.896;2023-09-18T10:24:40;100268.63;;;23.15;85.87
5126;BME280;63008;53.112;8.896;2023-09-18T10:26:50;100265.03;;;23.15;85.78
5126;BME280;63008;53.112;8.896;2023-09-18T10:28:53;100263.09;;;23.12;86.28
5126;BME280;63008;53.112;8.896;2023-09-18T10:30:57;100270.38;;;23.06;86.80
5126;BME280;63008;53.112;8.896;2023-09-18T10:32:59;100277.09;;;23.12;87.44
5126;BME280;63008;53.112;8.896;2023-09-18T10:35:02;100277.00;;;23.15;86.80
5126;BME280;63008;53.112;8.896;2023-09-18T10:37:04;100267.91;;;23.11;86.82
5126;BME280;63008;53.112;8.896;2023-09-18T10:39:09;100266.25;;;23.14;86.25
5126;BME280;63008;53.112;8.896;2023-09-18T10:41:12;100273.56;;;23.27;86.06
5126;BME280;63008;53.112;8.896;2023-09-18T10:43:15;100268.28;;;23.33;85.55